Cosco America — 3EPH4 — position and weather

sailwx.info

Track history (hours):
 
Tides and Currents Weather Stations Pressure Air Temp Water Temp Dewpoint Dewpoint Depression Visibility Wind Speed Wind Dir Waves Ship Positions

Cosco America

Last reported at 2017-Nov-14 04:12 UTC. Time now 2017-Nov-23 17:07 UTC.
Position N 31°07' E 122°16'.
Warning: this ship's position is 9 days out of date.

Length 349 m; draft 10.7 m.

Type: Ship (hazmat cat A). MMSI: 352631000.

Date/timePositionNaut miles runAvg speedWind from/ knotsBaromVisibWave heightAir tempDewpointWater temp
2017-Nov-14 04:12N 31°07' E 122°16'614.9
2017-Nov-14 03:46N 31°11' E 122°10'415.1
2017-Nov-14 03:30N 31°13' E 122°06'714.9
2017-Nov-14 03:00N 31°15' E 121°58'714.7
2017-Nov-14 02:30N 31°17' E 121°50'714.1
2017-Nov-14 02:01N 31°19' E 121°42'510.6
2017-Nov-14 01:31N 31°22' E 121°37'2 3.6
2017-Nov-14 01:00N 31°23' E 121°35'0 0.0
2017-Nov-14 00:30N 31°23' E 121°35'0 0.0
2017-Nov-14 00:00N 31°23' E 121°35'0 0.0
2017-Nov-13 23:30N 31°23' E 121°35'0 0.0
2017-Nov-13 23:00N 31°23' E 121°35'0 0.0
2017-Nov-13 22:30N 31°23' E 121°35'0 0.0
2017-Nov-13 22:00N 31°23' E 121°35'0 0.0
2017-Nov-13 02:00N 31°23' E 121°35'0 0.0
2017-Nov-13 01:29N 31°23' E 121°35'0 0.0
2017-Nov-13 00:59N 31°23' E 121°35'0 0.0
2017-Nov-13 00:29N 31°23' E 121°35'0 0.0
2017-Nov-12 23:59N 31°23' E 121°35'0 0.0
2017-Nov-12 23:24N 31°23' E 121°35'0 0.0
2017-Nov-12 22:59N 31°23' E 121°35'0 0.0
2017-Nov-12 22:29N 31°23' E 121°35'0 0.0
2017-Nov-12 21:59N 31°23' E 121°35'0 0.0
2017-Nov-12 21:29N 31°23' E 121°35'0 0.0
2017-Nov-12 20:59N 31°23' E 121°35'0 0.0
2017-Nov-12 20:29N 31°23' E 121°35'0 0.0
2017-Nov-12 19:59N 31°23' E 121°35'0 0.0
2017-Nov-12 19:29N 31°23' E 121°35'0 0.0
2017-Nov-12 19:00N 31°23' E 121°35'0 0.0
2017-Nov-12 18:29N 31°23' E 121°35'0 0.0
2017-Nov-12 17:59N 31°23' E 121°35'0 0.0
2017-Nov-12 17:29N 31°23' E 121°35'0 0.0
2017-Nov-12 16:59N 31°23' E 121°35'0 0.0
2017-Nov-12 16:29N 31°23' E 121°35'0 0.0
2017-Nov-12 15:59N 31°23' E 121°35'0 0.0
2017-Nov-12 15:29N 31°23' E 121°35'0 0.0
2017-Nov-12 14:56N 31°23' E 121°35'0 0.0
2017-Nov-12 14:29N 31°23' E 121°35'0 0.0
2017-Nov-12 13:59N 31°23' E 121°35'0 0.0
2017-Nov-12 13:29N 31°23' E 121°35'0 0.0
2017-Nov-12 12:59N 31°23' E 121°35'0 0.0
2017-Nov-12 12:29N 31°23' E 121°35'0 0.0
2017-Nov-12 11:59N 31°23' E 121°35'0 0.0
2017-Nov-12 11:29N 31°23' E 121°35'0 0.2
2017-Nov-12 11:00N 31°23' E 121°35'1 1.3
2017-Nov-12 10:30N 31°23' E 121°35'5 9.1
2017-Nov-12 10:01N 31°21' E 121°40'5 9.7
2017-Nov-12 09:30N 31°19' E 121°45'510.2
2017-Nov-12 09:00N 31°17' E 121°51'510.1
2017-Nov-12 08:31N 31°15' E 121°56'5 9.7
2017-Nov-12 08:01N 31°15' E 122°02'5 9.5
2017-Nov-12 07:30N 31°13' E 122°07'5 9.2
2017-Nov-12 06:59N 31°10' E 122°12'4 8.8
2017-Nov-12 06:30N 31°08' E 122°16'  
2017-Nov-08 01:52N 38°50' E 121°56'11 2.0
2017-Nov-07 20:13N 38°40' E 122°05'1 2.7
2017-Nov-07 19:53N 38°41' E 122°05'2 0.7
2017-Nov-07 16:56N 38°39' E 122°04'  
Track history (hours):
 
Tides and Currents Weather Stations Pressure Air Temp Water Temp Dewpoint Dewpoint Depression Visibility Wind Speed Wind Dir Waves Ship Positions

Cosco America

Last reported at 2017-Nov-14 04:12 UTC. Time now 2017-Nov-23 17:07 UTC.
Position N 31°07' E 122°16'.
Warning: this ship's position is 9 days out of date.

Length 349 m; draft 10.7 m.

Type: Ship (hazmat cat A). MMSI: 352631000.

Date/timePositionNaut miles runAvg speedWind from/ knotsBaromVisibWave heightAir tempDewpointWater temp
2017-Nov-14 04:12N 31°07' E 122°16'614.9
2017-Nov-14 03:46N 31°11' E 122°10'415.1
2017-Nov-14 03:30N 31°13' E 122°06'714.9
2017-Nov-14 03:00N 31°15' E 121°58'714.7
2017-Nov-14 02:30N 31°17' E 121°50'714.1
2017-Nov-14 02:01N 31°19' E 121°42'510.6
2017-Nov-14 01:31N 31°22' E 121°37'2 3.6
2017-Nov-14 01:00N 31°23' E 121°35'0 0.0
2017-Nov-14 00:30N 31°23' E 121°35'0 0.0
2017-Nov-14 00:00N 31°23' E 121°35'0 0.0
2017-Nov-13 23:30N 31°23' E 121°35'0 0.0
2017-Nov-13 23:00N 31°23' E 121°35'0 0.0
2017-Nov-13 22:30N 31°23' E 121°35'0 0.0
2017-Nov-13 22:00N 31°23' E 121°35'0 0.0
2017-Nov-13 02:00N 31°23' E 121°35'0 0.0
2017-Nov-13 01:29N 31°23' E 121°35'0 0.0
2017-Nov-13 00:59N 31°23' E 121°35'0 0.0
2017-Nov-13 00:29N 31°23' E 121°35'0 0.0
2017-Nov-12 23:59N 31°23' E 121°35'0 0.0
2017-Nov-12 23:24N 31°23' E 121°35'0 0.0
2017-Nov-12 22:59N 31°23' E 121°35'0 0.0
2017-Nov-12 22:29N 31°23' E 121°35'0 0.0
2017-Nov-12 21:59N 31°23' E 121°35'0 0.0
2017-Nov-12 21:29N 31°23' E 121°35'0 0.0
2017-Nov-12 20:59N 31°23' E 121°35'0 0.0
2017-Nov-12 20:29N 31°23' E 121°35'0 0.0
2017-Nov-12 19:59N 31°23' E 121°35'0 0.0
2017-Nov-12 19:29N 31°23' E 121°35'0 0.0
2017-Nov-12 19:00N 31°23' E 121°35'0 0.0
2017-Nov-12 18:29N 31°23' E 121°35'0 0.0
2017-Nov-12 17:59N 31°23' E 121°35'0 0.0
2017-Nov-12 17:29N 31°23' E 121°35'0 0.0
2017-Nov-12 16:59N 31°23' E 121°35'0 0.0
2017-Nov-12 16:29N 31°23' E 121°35'0 0.0
2017-Nov-12 15:59N 31°23' E 121°35'0 0.0
2017-Nov-12 15:29N 31°23' E 121°35'0 0.0
2017-Nov-12 14:56N 31°23' E 121°35'0 0.0
2017-Nov-12 14:29N 31°23' E 121°35'0 0.0
2017-Nov-12 13:59N 31°23' E 121°35'0 0.0
2017-Nov-12 13:29N 31°23' E 121°35'0 0.0
2017-Nov-12 12:59N 31°23' E 121°35'0 0.0
2017-Nov-12 12:29N 31°23' E 121°35'0 0.0
2017-Nov-12 11:59N 31°23' E 121°35'0 0.0
2017-Nov-12 11:29N 31°23' E 121°35'0 0.2
2017-Nov-12 11:00N 31°23' E 121°35'1 1.3
2017-Nov-12 10:30N 31°23' E 121°35'5 9.1
2017-Nov-12 10:01N 31°21' E 121°40'5 9.7
2017-Nov-12 09:30N 31°19' E 121°45'510.2
2017-Nov-12 09:00N 31°17' E 121°51'510.1
2017-Nov-12 08:31N 31°15' E 121°56'5 9.7
2017-Nov-12 08:01N 31°15' E 122°02'5 9.5
2017-Nov-12 07:30N 31°13' E 122°07'5 9.2
2017-Nov-12 06:59N 31°10' E 122°12'4 8.8
2017-Nov-12 06:30N 31°08' E 122°16'  
2017-Nov-08 01:52N 38°50' E 121°56'11 2.0
2017-Nov-07 20:13N 38°40' E 122°05'1 2.7
2017-Nov-07 19:53N 38°41' E 122°05'2 0.7
2017-Nov-07 16:56N 38°39' E 122°04'  

Dump ship's entire track history